createdAt,value
2022-12-27T00:00:10.192Z,94.74
2022-12-27T00:01:10.173Z,94.95
2022-12-27T00:02:10.252Z,94.84
2022-12-27T00:03:10.126Z,94.53
2022-12-27T00:04:10.102Z,94.47
2022-12-27T00:05:10.090Z,94.68
2022-12-27T00:06:10.064Z,94.57
2022-12-27T00:07:10.050Z,94.37
2022-12-27T00:08:10.039Z,94.89
2022-12-27T00:09:10.000Z,95.09
2022-12-27T00:10:09.971Z,94.78
2022-12-27T00:11:09.953Z,94.37
2022-12-27T00:12:09.935Z,94.95
2022-12-27T00:13:09.939Z,94.22
2022-12-27T00:14:09.903Z,93.80
2022-12-27T00:15:09.867Z,94.64
2022-12-27T00:16:09.900Z,93.80
2022-12-27T00:17:09.854Z,94.99
2022-12-27T00:18:09.813Z,95.20
2022-12-27T00:19:09.782Z,95.51
2022-12-27T00:20:11.755Z,95.20
2022-12-27T00:21:09.743Z,95.09
2022-12-27T00:22:09.765Z,95.62
2022-12-27T00:23:09.713Z,96.08
2022-12-27T00:24:09.747Z,95.93
2022-12-27T00:25:09.665Z,95.47
2022-12-27T00:26:09.655Z,95.05
2022-12-27T00:27:09.620Z,94.64
2022-12-27T00:28:09.600Z,95.36
2022-12-27T00:29:09.577Z,94.95
2022-12-27T00:30:09.564Z,94.53
2022-12-27T00:31:09.611Z,95.36
2022-12-27T00:32:09.564Z,95.47
2022-12-27T00:33:09.513Z,95.05
2022-12-27T00:34:09.470Z,95.57
2022-12-27T00:35:09.445Z,95.05
2022-12-27T00:36:09.454Z,94.84
2022-12-27T00:37:09.410Z,94.53
2022-12-27T00:38:09.439Z,94.84
2022-12-27T00:39:09.365Z,95.15
2022-12-27T00:40:09.366Z,94.84
2022-12-27T00:41:09.352Z,94.78
2022-12-27T00:42:09.305Z,94.99
2022-12-27T00:43:09.559Z,95.09
2022-12-27T00:44:09.268Z,95.15
2022-12-27T00:45:09.238Z,95.36
2022-12-27T00:46:09.252Z,95.15
2022-12-27T00:47:09.236Z,94.53
2022-12-27T00:48:09.181Z,94.74
2022-12-27T00:49:09.154Z,94.95
2022-12-27T00:50:09.131Z,94.84
2022-12-27T00:51:09.125Z,94.43
2022-12-27T00:52:09.164Z,94.74
2022-12-27T00:53:09.087Z,95.36
2022-12-27T00:54:09.055Z,95.05
2022-12-27T00:55:09.061Z,95.26
2022-12-27T00:56:09.013Z,95.05
2022-12-27T00:57:08.995Z,94.84
2022-12-27T00:58:09.047Z,95.15
2022-12-27T00:59:08.960Z,94.84
2022-12-27T01:00:10.601Z,94.28
2022-12-27T01:01:08.973Z,93.97
2022-12-27T01:02:08.957Z,93.97
2022-12-27T01:03:08.865Z,93.87
2022-12-27T01:04:08.885Z,93.87
2022-12-27T01:05:08.816Z,94.28
2022-12-27T01:06:08.808Z,94.74
2022-12-27T01:07:08.783Z,94.53
2022-12-27T01:08:08.761Z,94.64
2022-12-27T01:09:08.736Z,94.07
2022-12-27T01:10:08.713Z,94.84
2022-12-27T01:11:08.689Z,94.43
2022-12-27T01:12:08.672Z,95.15
2022-12-27T01:13:08.695Z,95.15
2022-12-27T01:14:08.627Z,95.05
2022-12-27T01:15:08.625Z,95.26
2022-12-27T01:16:08.665Z,95.47
2022-12-27T01:17:08.571Z,95.36
2022-12-27T01:18:08.547Z,95.05
2022-12-27T01:19:08.548Z,95.93
2022-12-27T01:20:08.516Z,95.15
2022-12-27T01:21:08.504Z,95.57
2022-12-27T01:22:08.479Z,95.15
2022-12-27T01:23:08.434Z,95.15
2022-12-27T01:24:08.581Z,95.20
2022-12-27T01:25:08.406Z,95.62
2022-12-27T01:26:08.380Z,95.93
2022-12-27T01:27:08.356Z,95.62
2022-12-27T01:28:08.331Z,95.67
2022-12-27T01:29:08.317Z,95.72
2022-12-27T01:30:08.365Z,95.72
2022-12-27T01:31:08.267Z,95.93
2022-12-27T01:32:08.270Z,96.24
2022-12-27T01:33:08.223Z,96.03
2022-12-27T01:34:08.205Z,95.93
2022-12-27T01:35:08.199Z,96.76
2022-12-27T01:36:08.194Z,96.76
2022-12-27T01:37:08.147Z,96.55
2022-12-27T01:38:08.147Z,95.72
2022-12-27T01:39:08.097Z,95.51
2022-12-27T01:40:08.086Z,95.62
2022-12-27T01:41:08.094Z,96.03
2022-12-27T01:42:08.045Z,95.72
2022-12-27T01:43:08.032Z,95.99
2022-12-27T01:44:07.999Z,96.03
2022-12-27T01:45:07.971Z,96.03
2022-12-27T01:46:07.992Z,95.99
2022-12-27T01:47:07.933Z,95.83
2022-12-27T01:48:07.925Z,95.67
2022-12-27T01:49:07.922Z,95.93
2022-12-27T01:50:07.876Z,95.99
2022-12-27T01:51:07.866Z,95.89
2022-12-27T01:52:07.829Z,95.57
2022-12-27T01:53:07.845Z,95.89
2022-12-27T01:54:07.804Z,95.15
2022-12-27T01:55:07.762Z,95.15
2022-12-27T01:56:07.772Z,95.57
2022-12-27T01:57:07.718Z,95.89
2022-12-27T01:58:07.710Z,95.67
2022-12-27T01:59:07.691Z,95.47
2022-12-27T02:00:07.660Z,95.89
2022-12-27T02:01:07.682Z,95.99
2022-12-27T02:02:07.784Z,95.89
2022-12-27T02:03:07.649Z,95.67
2022-12-27T02:04:07.569Z,95.99
2022-12-27T02:05:07.545Z,96.20
2022-12-27T02:06:07.534Z,96.72
2022-12-27T02:07:07.545Z,96.55
2022-12-27T02:08:07.487Z,96.41
2022-12-27T02:09:07.475Z,96.34
2022-12-27T02:10:07.441Z,96.76
2022-12-27T02:11:07.422Z,97.07
2022-12-27T02:12:07.417Z,97.07
2022-12-27T02:13:07.408Z,97.49
2022-12-27T02:14:07.359Z,97.86
2022-12-27T02:15:07.342Z,96.97
2022-12-27T02:16:07.314Z,96.61
2022-12-27T02:17:07.349Z,96.51
2022-12-27T02:18:07.274Z,96.41
2022-12-27T02:19:07.276Z,96.51
2022-12-27T02:20:07.259Z,96.20
2022-12-27T02:21:07.209Z,96.41
2022-12-27T02:22:07.193Z,96.30
2022-12-27T02:23:07.282Z,96.30
2022-12-27T02:24:07.148Z,96.61
2022-12-27T02:25:07.214Z,96.61
2022-12-27T02:26:07.103Z,96.41
2022-12-27T02:27:07.085Z,96.30
2022-12-27T02:28:07.076Z,96.30
2022-12-27T02:29:07.043Z,97.24
2022-12-27T02:30:07.092Z,96.72
2022-12-27T02:31:07.112Z,96.61
2022-12-27T02:32:06.982Z,96.61
2022-12-27T02:33:06.958Z,96.92
2022-12-27T02:34:06.966Z,96.82
2022-12-27T02:35:06.936Z,97.03
2022-12-27T02:36:06.896Z,96.82
2022-12-27T02:37:07.109Z,97.65
2022-12-27T02:38:06.847Z,97.24
2022-12-27T02:39:06.829Z,97.34
2022-12-27T02:40:06.821Z,97.34
2022-12-27T02:41:06.789Z,97.03
2022-12-27T02:42:06.781Z,96.92
2022-12-27T02:43:06.796Z,96.82
2022-12-27T02:44:06.730Z,96.61
2022-12-27T02:45:06.702Z,96.72
2022-12-27T02:46:06.717Z,97.24
2022-12-27T02:47:06.669Z,97.65
2022-12-27T02:48:06.655Z,97.55
2022-12-27T02:49:06.731Z,97.24
2022-12-27T02:50:06.596Z,98.07
2022-12-27T02:51:06.583Z,98.07
2022-12-27T02:52:06.578Z,97.44
2022-12-27T02:53:06.537Z,97.70
2022-12-27T02:54:06.522Z,97.49
2022-12-27T02:55:06.567Z,97.59
2022-12-27T02:56:06.483Z,97.86
2022-12-27T02:57:06.459Z,97.80
2022-12-27T02:58:06.427Z,98.01
2022-12-27T02:59:06.406Z,97.49
2022-12-27T03:00:06.388Z,98.11
2022-12-27T03:01:06.409Z,98.22
2022-12-27T03:02:06.524Z,98.43
2022-12-27T03:03:06.409Z,98.74
2022-12-27T03:04:06.310Z,98.38
2022-12-27T03:05:06.278Z,98.27
2022-12-27T03:06:06.303Z,98.01
2022-12-27T03:07:06.236Z,98.07
2022-12-27T03:08:06.227Z,98.07
2022-12-27T03:09:06.193Z,98.17
2022-12-27T03:10:06.174Z,98.38
2022-12-27T03:11:06.160Z,98.17
2022-12-27T03:12:06.177Z,98.38
2022-12-27T03:13:06.131Z,98.07
2022-12-27T03:14:06.099Z,98.22
2022-12-27T03:15:06.092Z,97.96
2022-12-27T03:16:06.097Z,98.38
2022-12-27T03:17:06.027Z,98.59
2022-12-27T03:18:06.040Z,98.02
2022-12-27T03:19:05.994Z,98.17
2022-12-27T03:20:05.967Z,98.13
2022-12-27T03:21:06.038Z,98.02
2022-12-27T03:22:05.936Z,97.96
2022-12-27T03:23:05.967Z,97.61
2022-12-27T03:24:05.883Z,97.50
2022-12-27T03:25:05.863Z,97.40
2022-12-27T03:26:05.844Z,97.61
2022-12-27T03:27:05.821Z,98.33
2022-12-27T03:28:05.814Z,98.02
2022-12-27T03:29:05.776Z,98.13
2022-12-27T03:30:05.760Z,98.23
2022-12-27T03:31:05.783Z,98.38
2022-12-27T03:32:05.709Z,98.44
2022-12-27T03:33:05.689Z,98.65
2022-12-27T03:34:05.734Z,99.06
2022-12-27T03:35:05.649Z,98.75
2022-12-27T03:36:05.646Z,98.59
2022-12-27T03:37:05.620Z,98.75
2022-12-27T03:38:05.836Z,98.75
2022-12-27T03:39:05.584Z,98.13
2022-12-27T03:40:05.608Z,98.23
2022-12-27T03:41:05.533Z,99.16
2022-12-27T03:42:05.532Z,98.75
2022-12-27T03:43:05.500Z,98.44
2022-12-27T03:44:05.464Z,98.54
2022-12-27T03:45:05.443Z,98.65
2022-12-27T03:46:05.472Z,99.06
2022-12-27T03:47:05.404Z,98.29
2022-12-27T03:48:05.418Z,98.19
2022-12-27T03:49:05.367Z,98.13
2022-12-27T03:50:05.335Z,98.33
2022-12-27T03:51:05.466Z,98.02
2022-12-27T03:52:06.251Z,98.39
2022-12-27T03:53:05.311Z,97.98
2022-12-27T03:54:05.288Z,97.98
2022-12-27T03:55:05.271Z,98.19
2022-12-27T03:56:05.222Z,98.81
2022-12-27T03:57:05.222Z,98.71
2022-12-27T03:58:05.249Z,98.71
2022-12-27T03:59:05.152Z,98.96
2022-12-27T04:00:05.132Z,99.16
2022-12-27T04:01:05.110Z,98.75
2022-12-27T04:02:05.257Z,98.60
2022-12-27T04:03:05.112Z,98.81
2022-12-27T04:04:05.062Z,98.71
2022-12-27T04:05:05.028Z,98.71
2022-12-27T04:06:04.999Z,98.81
2022-12-27T04:07:05.007Z,98.29
2022-12-27T04:08:04.986Z,98.29
2022-12-27T04:09:04.942Z,97.98
2022-12-27T04:10:04.916Z,97.98
2022-12-27T04:11:04.899Z,97.88
2022-12-27T04:12:04.874Z,98.19
2022-12-27T04:13:04.873Z,98.71
2022-12-27T04:14:04.857Z,98.75
2022-12-27T04:15:04.821Z,99.43
2022-12-27T04:16:04.858Z,99.12
2022-12-27T04:17:04.775Z,99.90
2022-12-27T04:18:04.762Z,99.68
2022-12-27T04:19:04.734Z,99.68
2022-12-27T04:20:04.717Z,99.58
2022-12-27T04:21:04.691Z,99.06
2022-12-27T04:22:04.671Z,99.68
2022-12-27T04:23:04.648Z,99.68
2022-12-27T04:24:04.634Z,99.79
2022-12-27T04:25:04.622Z,99.68
2022-12-27T04:26:04.593Z,99.16
2022-12-27T04:27:04.569Z,99.58
2022-12-27T04:28:04.546Z,99.90
2022-12-27T04:29:04.527Z,99.02
2022-12-27T04:30:04.583Z,98.91
2022-12-27T04:31:04.554Z,99.54
2022-12-27T04:32:04.462Z,98.71
2022-12-27T04:33:04.439Z,98.39
2022-12-27T04:34:04.423Z,97.98
2022-12-27T04:35:04.395Z,98.03
2022-12-27T04:36:06.419Z,98.24
2022-12-27T04:37:04.372Z,98.24
2022-12-27T04:38:04.337Z,98.55
2022-12-27T04:39:04.360Z,98.14
2022-12-27T04:40:04.311Z,98.66
2022-12-27T04:41:04.277Z,98.24
2022-12-27T04:42:04.253Z,98.97
2022-12-27T04:43:04.244Z,98.03
2022-12-27T04:44:04.222Z,98.55
2022-12-27T04:45:04.218Z,98.76
2022-12-27T04:46:04.243Z,98.45
2022-12-27T04:47:04.147Z,99.07
2022-12-27T04:48:04.135Z,98.55
2022-12-27T04:49:04.110Z,98.14
2022-12-27T04:50:04.124Z,98.97
2022-12-27T04:51:04.071Z,99.38
2022-12-27T04:52:04.059Z,99.49
2022-12-27T04:53:04.025Z,98.66
2022-12-27T04:54:04.007Z,98.55
2022-12-27T04:55:03.981Z,99.74
2022-12-27T04:56:03.986Z,98.39
2022-12-27T04:57:03.946Z,98.14
2022-12-27T04:58:03.938Z,98.14
2022-12-27T04:59:03.908Z,97.83
2022-12-27T05:00:03.886Z,97.93
2022-12-27T05:01:06.709Z,97.25
2022-12-27T05:02:04.067Z,98.29
2022-12-27T05:03:03.962Z,98.08
2022-12-27T05:04:03.796Z,98.19
2022-12-27T05:05:03.851Z,98.91
2022-12-27T05:06:03.754Z,98.08
2022-12-27T05:07:03.751Z,98.19
2022-12-27T05:08:03.711Z,98.29
2022-12-27T05:09:03.692Z,97.88
2022-12-27T05:10:03.678Z,98.19
2022-12-27T05:11:03.685Z,98.23
2022-12-27T05:12:03.630Z,99.02
2022-12-27T05:13:03.613Z,98.29
2022-12-27T05:14:03.595Z,98.19
2022-12-27T05:15:03.577Z,98.60
2022-12-27T05:16:03.640Z,98.81
2022-12-27T05:17:03.578Z,98.33
2022-12-27T05:18:03.502Z,98.71
2022-12-27T05:19:03.491Z,98.23
2022-12-27T05:20:03.458Z,98.23
2022-12-27T05:21:03.450Z,98.50
2022-12-27T05:22:03.517Z,98.60
2022-12-27T05:23:03.399Z,99.16
2022-12-27T05:24:05.698Z,98.39
2022-12-27T05:25:03.355Z,97.98
2022-12-27T05:26:03.334Z,97.56
2022-12-27T05:27:03.344Z,97.67
2022-12-27T05:28:03.321Z,97.52
2022-12-27T05:29:03.299Z,97.88
2022-12-27T05:30:03.259Z,97.98
2022-12-27T05:31:03.271Z,97.98
2022-12-27T05:32:05.697Z,98.50
2022-12-27T05:33:03.210Z,98.19
2022-12-27T05:34:03.216Z,98.91
2022-12-27T05:35:03.159Z,98.81
2022-12-27T05:36:03.130Z,98.81
2022-12-27T05:37:03.118Z,98.19
2022-12-27T05:38:03.100Z,97.88
2022-12-27T05:39:03.087Z,98.19
2022-12-27T05:40:03.095Z,98.19
2022-12-27T05:41:03.031Z,97.98
2022-12-27T05:42:03.010Z,98.19
2022-12-27T05:43:02.982Z,98.29
2022-12-27T05:44:07.195Z,98.19
2022-12-27T05:45:02.938Z,98.71
2022-12-27T05:46:02.941Z,98.29
2022-12-27T05:47:02.961Z,98.29
2022-12-27T05:48:02.879Z,98.71
2022-12-27T05:49:02.857Z,98.19
2022-12-27T05:50:02.838Z,98.08
2022-12-27T05:51:02.820Z,98.08
2022-12-27T05:52:02.798Z,98.71
2022-12-27T05:53:02.786Z,99.64
2022-12-27T05:54:02.755Z,99.64
2022-12-27T05:55:02.740Z,98.14
2022-12-27T05:56:02.764Z,97.93
2022-12-27T05:57:02.688Z,98.14
2022-12-27T05:58:02.687Z,97.83
2022-12-27T05:59:02.651Z,98.91
2022-12-27T06:00:02.644Z,98.71
2022-12-27T06:01:02.618Z,98.60
2022-12-27T06:02:02.803Z,99.02
2022-12-27T06:03:02.674Z,99.02
2022-12-27T06:04:02.557Z,99.22
2022-12-27T06:05:02.557Z,99.02
2022-12-27T06:06:02.500Z,99.02
2022-12-27T06:07:02.520Z,98.91
2022-12-27T06:08:02.469Z,99.02
2022-12-27T06:09:02.464Z,99.85
2022-12-27T06:10:02.423Z,99.74
2022-12-27T06:11:02.411Z,99.54
2022-12-27T06:12:02.401Z,99.54
2022-12-27T06:13:02.402Z,99.43
2022-12-27T06:14:02.338Z,99.12
2022-12-27T06:15:02.317Z,99.43
2022-12-27T06:16:02.340Z,99.43
2022-12-27T06:17:02.275Z,99.54
2022-12-27T06:18:02.253Z,99.43
2022-12-27T06:19:02.270Z,99.12
2022-12-27T06:20:02.264Z,99.12
2022-12-27T06:21:02.196Z,99.12
2022-12-27T06:22:02.169Z,99.37
2022-12-27T06:23:02.147Z,99.95
2022-12-27T06:24:02.158Z,99.85
2022-12-27T06:25:02.103Z,99.85
2022-12-27T06:26:02.089Z,99.12
2022-12-27T06:27:02.070Z,99.43
2022-12-27T06:28:02.086Z,99.99
2022-12-27T06:29:02.087Z,99.68
2022-12-27T06:30:01.999Z,99.99
2022-12-27T06:31:02.023Z,99.99
2022-12-27T06:32:01.975Z,99.99
2022-12-27T06:33:01.954Z,99.99
2022-12-27T06:34:01.916Z,99.99
2022-12-27T06:35:01.903Z,99.95
2022-12-27T06:36:01.879Z,99.74
2022-12-27T06:37:01.861Z,99.99
2022-12-27T06:38:01.836Z,99.64
2022-12-27T06:39:01.824Z,99.43
2022-12-27T06:40:01.823Z,99.74
2022-12-27T06:41:01.773Z,99.74
2022-12-27T06:42:01.755Z,99.74
2022-12-27T06:43:01.733Z,99.99
2022-12-27T06:44:01.704Z,99.99
2022-12-27T06:45:01.690Z,99.99
2022-12-27T06:46:01.767Z,99.49
2022-12-27T06:47:01.705Z,99.64
2022-12-27T06:48:01.645Z,99.99
2022-12-27T06:49:01.733Z,99.91
2022-12-27T06:50:01.594Z,99.91
2022-12-27T06:51:01.610Z,99.70
2022-12-27T06:52:01.544Z,99.80
2022-12-27T06:53:01.567Z,99.38
2022-12-27T06:54:01.509Z,98.97
2022-12-27T06:55:01.485Z,99.38
2022-12-27T06:56:01.463Z,99.59
2022-12-27T06:57:01.467Z,99.80
2022-12-27T06:58:01.425Z,99.07
2022-12-27T06:59:01.414Z,99.38
2022-12-27T07:00:01.384Z,98.72
2022-12-27T07:01:01.386Z,98.72
2022-12-27T07:02:01.407Z,99.44
2022-12-27T07:03:01.383Z,99.24
2022-12-27T07:04:01.354Z,98.86
2022-12-27T07:05:01.277Z,99.59
2022-12-27T07:06:01.268Z,99.65
2022-12-27T07:07:01.281Z,99.76
2022-12-27T07:08:01.229Z,99.03
2022-12-27T07:09:01.200Z,99.24
2022-12-27T07:10:01.224Z,99.28
2022-12-27T07:11:01.155Z,99.99
2022-12-27T07:12:01.174Z,99.76
2022-12-27T07:13:01.116Z,99.44
2022-12-27T07:14:01.100Z,99.65
2022-12-27T07:15:01.081Z,99.86
2022-12-27T07:16:01.050Z,99.44
2022-12-27T07:17:01.030Z,99.55
2022-12-27T07:18:01.022Z,99.03
2022-12-27T07:19:01.031Z,99.13
2022-12-27T07:20:00.965Z,99.03
2022-12-27T07:21:00.949Z,99.13
2022-12-27T07:22:00.928Z,98.82
2022-12-27T07:23:00.904Z,99.13
2022-12-27T07:24:00.910Z,98.93
2022-12-27T07:25:00.877Z,99.65
2022-12-27T07:26:00.842Z,98.82
2022-12-27T07:27:00.826Z,99.86
2022-12-27T07:28:00.802Z,99.44
2022-12-27T07:29:00.807Z,99.13
2022-12-27T07:30:00.774Z,99.96
2022-12-27T07:31:00.739Z,99.34
2022-12-27T07:32:00.747Z,99.34
2022-12-27T07:33:00.712Z,98.93
2022-12-27T07:34:00.679Z,99.34
2022-12-27T07:35:00.712Z,99.03
2022-12-27T07:36:00.674Z,98.82
2022-12-27T07:37:00.616Z,99.65
2022-12-27T07:38:00.591Z,99.86
2022-12-27T07:39:00.573Z,99.55
2022-12-27T07:40:00.554Z,99.86
2022-12-27T07:41:00.578Z,99.96
2022-12-27T07:42:04.807Z,99.65
2022-12-27T07:43:00.492Z,99.86
2022-12-27T07:44:00.475Z,99.34
2022-12-27T07:45:00.457Z,99.30
2022-12-27T07:46:00.516Z,99.51
2022-12-27T07:47:00.412Z,99.19
2022-12-27T07:48:00.409Z,99.51
2022-12-27T07:49:00.403Z,99.76
2022-12-27T07:50:00.344Z,99.03
2022-12-27T07:51:00.427Z,99.65
2022-12-27T07:52:00.310Z,98.99
2022-12-27T07:53:00.298Z,99.13
2022-12-27T07:54:00.268Z,98.82
2022-12-27T07:55:00.255Z,99.24
2022-12-27T07:56:00.255Z,99.55
2022-12-27T07:57:00.358Z,99.03
2022-12-27T07:58:00.226Z,98.82
2022-12-27T07:59:00.183Z,99.44
2022-12-27T08:00:00.146Z,99.13
2022-12-27T08:01:00.214Z,99.24
2022-12-27T08:02:00.288Z,99.55
2022-12-27T08:03:00.167Z,99.13
2022-12-27T08:04:00.095Z,99.65
2022-12-27T08:05:00.041Z,99.55
2022-12-27T08:06:00.044Z,99.55
2022-12-27T08:06:59.999Z,99.55
2022-12-27T08:08:00.005Z,99.03
2022-12-27T08:08:59.964Z,98.93
2022-12-27T08:09:59.950Z,98.82
2022-12-27T08:11:05.275Z,98.78
2022-12-27T08:11:59.956Z,99.03
2022-12-27T08:12:59.898Z,99.13
2022-12-27T08:13:59.861Z,98.82
2022-12-27T08:14:59.840Z,99.34
2022-12-27T08:15:59.822Z,99.76
2022-12-27T08:16:59.826Z,99.55
2022-12-27T08:17:59.803Z,99.34
2022-12-27T08:19:03.342Z,98.93
2022-12-27T08:19:59.735Z,99.03
2022-12-27T08:20:59.726Z,99.24
2022-12-27T08:21:59.694Z,99.55
2022-12-27T08:22:59.704Z,99.24
2022-12-27T08:23:59.654Z,99.24
2022-12-27T08:24:59.634Z,99.03
2022-12-27T08:25:59.612Z,99.13
2022-12-27T08:26:59.621Z,99.86
2022-12-27T08:27:59.624Z,99.96
2022-12-27T08:28:59.599Z,99.86
2022-12-27T08:29:59.537Z,99.76
2022-12-27T08:30:59.549Z,99.65
2022-12-27T08:31:59.495Z,99.34
2022-12-27T08:32:59.471Z,99.03
2022-12-27T08:33:59.522Z,99.24
2022-12-27T08:35:24.560Z,99.09
2022-12-27T08:35:59.411Z,99.34
2022-12-27T08:36:59.396Z,99.51
2022-12-27T08:37:59.411Z,99.51
2022-12-27T08:38:59.349Z,98.88
2022-12-27T08:40:02.926Z,99.61
2022-12-27T08:40:59.317Z,99.19
2022-12-27T08:41:59.323Z,99.51
2022-12-27T08:42:59.317Z,99.09
2022-12-27T08:43:59.254Z,98.93
2022-12-27T08:44:59.272Z,98.78
2022-12-27T08:45:59.261Z,98.88
2022-12-27T08:46:59.189Z,98.99
2022-12-27T08:47:59.245Z,98.68
2022-12-27T08:48:59.172Z,98.36
2022-12-27T08:49:59.125Z,98.47
2022-12-27T08:50:59.108Z,98.32
2022-12-27T08:51:59.134Z,98.52
2022-12-27T08:52:59.067Z,98.52
2022-12-27T08:53:59.048Z,99.40
2022-12-27T08:54:59.077Z,99.25
2022-12-27T08:55:59.019Z,99.51
2022-12-27T08:56:58.982Z,99.30
2022-12-27T08:57:58.965Z,99.19
2022-12-27T08:58:58.941Z,98.88
2022-12-27T08:59:58.923Z,99.56
2022-12-27T09:00:58.954Z,99.82
2022-12-27T09:01:58.961Z,98.94
2022-12-27T09:02:58.984Z,99.35
2022-12-27T09:03:58.849Z,98.94
2022-12-27T09:04:58.820Z,98.52
2022-12-27T09:05:58.855Z,98.11
2022-12-27T09:06:58.782Z,98.11
2022-12-27T09:07:58.834Z,97.90
2022-12-27T09:08:58.776Z,98.11
2022-12-27T09:09:58.736Z,98.83
2022-12-27T09:10:58.700Z,98.94
2022-12-27T09:11:58.722Z,99.35
2022-12-27T09:12:58.663Z,99.35
2022-12-27T09:13:58.644Z,99.35
2022-12-27T09:14:58.641Z,98.73
2022-12-27T09:15:58.692Z,98.63
2022-12-27T09:16:58.635Z,98.21
2022-12-27T09:17:58.570Z,98.42
2022-12-27T09:18:58.570Z,97.90
2022-12-27T09:19:58.524Z,97.90
2022-12-27T09:20:58.508Z,97.80
2022-12-27T09:21:58.486Z,98.11
2022-12-27T09:22:58.460Z,98.48
2022-12-27T09:23:58.554Z,97.75
2022-12-27T09:24:58.494Z,97.86
2022-12-27T09:25:58.426Z,97.75
2022-12-27T09:26:58.406Z,97.69
2022-12-27T09:27:58.369Z,97.96
2022-12-27T09:28:58.425Z,97.96
2022-12-27T09:29:58.325Z,97.75
2022-12-27T09:30:58.327Z,97.75
2022-12-27T09:31:58.287Z,97.65
2022-12-27T09:32:58.289Z,98.58
2022-12-27T09:33:58.246Z,99.00
2022-12-27T09:34:58.223Z,98.64
2022-12-27T09:35:58.207Z,98.38
2022-12-27T09:36:58.309Z,98.38
2022-12-27T09:37:58.184Z,97.86
2022-12-27T09:38:58.143Z,97.96
2022-12-27T09:39:58.126Z,97.86
2022-12-27T09:40:58.109Z,97.91
2022-12-27T09:43:12.640Z,97.66
2022-12-27T09:43:58.045Z,98.39
2022-12-27T09:44:58.027Z,97.14
2022-12-27T09:45:58.047Z,97.81
2022-12-27T09:46:58.016Z,97.04
2022-12-27T09:47:57.966Z,97.87
2022-12-27T09:48:57.945Z,97.09
2022-12-27T09:49:57.951Z,97.71
2022-12-27T09:50:57.912Z,98.02
2022-12-27T09:51:57.888Z,98.12
2022-12-27T09:52:57.911Z,97.91
2022-12-27T09:53:57.854Z,98.64
2022-12-27T09:55:02.647Z,98.95
2022-12-27T09:55:57.834Z,98.74
2022-12-27T09:57:21.148Z,98.43
2022-12-27T09:57:57.898Z,97.91
2022-12-27T09:58:57.779Z,97.29
2022-12-27T09:59:57.873Z,98.12
2022-12-27T10:00:57.735Z,97.71
2022-12-27T10:01:57.755Z,97.60
2022-12-27T10:02:57.750Z,97.91
2022-12-27T10:03:57.839Z,98.02
2022-12-27T10:05:23.633Z,98.02
2022-12-27T10:05:57.706Z,97.39
2022-12-27T10:06:57.609Z,97.91
2022-12-27T10:07:57.634Z,97.81
2022-12-27T10:08:57.560Z,97.60
2022-12-27T10:09:57.604Z,98.02
2022-12-27T10:10:57.531Z,97.60
2022-12-27T10:11:57.498Z,98.02
2022-12-27T10:12:57.479Z,97.39
2022-12-27T10:13:57.530Z,97.35
2022-12-27T10:14:57.451Z,97.97
2022-12-27T10:15:57.462Z,97.14
2022-12-27T10:16:57.414Z,97.14
2022-12-27T10:17:57.389Z,97.66
2022-12-27T10:18:57.395Z,97.87
2022-12-27T10:19:57.379Z,97.56
2022-12-27T10:20:57.340Z,98.39
2022-12-27T10:21:57.496Z,97.04
2022-12-27T10:23:01.468Z,97.14
2022-12-27T10:23:57.582Z,97.56
2022-12-27T10:24:57.286Z,97.35
2022-12-27T10:25:57.225Z,96.83
2022-12-27T10:26:57.203Z,97.04
2022-12-27T10:27:57.198Z,96.83
2022-12-27T10:28:57.502Z,96.52
2022-12-27T10:29:57.203Z,97.14
2022-12-27T10:30:57.150Z,97.04
2022-12-27T10:31:57.123Z,96.94
2022-12-27T10:32:57.145Z,96.31
2022-12-27T10:33:57.081Z,96.94
2022-12-27T10:34:57.047Z,97.35
2022-12-27T10:35:57.037Z,97.87
2022-12-27T10:36:57.075Z,97.56
2022-12-27T10:37:56.995Z,98.08
2022-12-27T10:38:56.979Z,97.66
2022-12-27T10:39:57.015Z,96.73
2022-12-27T10:40:56.930Z,97.25
2022-12-27T10:41:56.925Z,96.73
2022-12-27T10:42:56.925Z,96.67
2022-12-27T10:43:56.890Z,97.14
2022-12-27T10:44:56.850Z,96.89
2022-12-27T10:45:56.849Z,97.62
2022-12-27T10:46:56.874Z,96.31
2022-12-27T10:47:56.856Z,96.52
2022-12-27T10:49:20.296Z,96.48
2022-12-27T10:49:56.776Z,96.94
2022-12-27T10:50:56.750Z,96.52
2022-12-27T10:51:56.721Z,96.06
2022-12-27T10:52:57.814Z,96.79
2022-12-27T10:53:56.683Z,95.80
2022-12-27T10:54:56.657Z,96.31
2022-12-27T10:55:56.650Z,96.42
2022-12-27T10:56:56.636Z,95.49
2022-12-27T10:57:56.696Z,96.94
2022-12-27T10:58:59.033Z,96.62
2022-12-27T10:59:56.565Z,96.42
2022-12-27T11:00:56.639Z,96.52
2022-12-27T11:01:56.709Z,95.70
2022-12-27T11:02:56.560Z,96.89
2022-12-27T11:03:56.514Z,96.37
2022-12-27T11:04:56.465Z,96.37
2022-12-27T11:05:56.447Z,96.12
2022-12-27T11:06:56.432Z,95.40
2022-12-27T11:07:56.408Z,94.78
2022-12-27T11:08:56.418Z,94.78
2022-12-27T11:09:56.371Z,94.31
2022-12-27T11:10:56.347Z,94.78
2022-12-27T11:11:56.392Z,94.82
2022-12-27T11:12:56.326Z,95.40
2022-12-27T11:13:56.330Z,95.19
2022-12-27T11:14:56.334Z,94.37
2022-12-27T11:15:58.717Z,94.37
2022-12-27T11:16:56.240Z,94.57
2022-12-27T11:17:56.297Z,94.06
2022-12-27T11:18:56.193Z,94.47
2022-12-27T11:19:56.180Z,96.08
2022-12-27T11:20:56.165Z,93.49
2022-12-27T11:21:56.169Z,93.54
2022-12-27T11:22:56.128Z,94.16
2022-12-27T11:23:56.108Z,93.23
2022-12-27T11:24:56.082Z,94.16
2022-12-27T11:25:56.067Z,94.20
2022-12-27T11:26:56.069Z,93.23
2022-12-27T11:27:56.072Z,94.20
2022-12-27T11:28:56.028Z,93.64
2022-12-27T11:29:55.990Z,94.06
2022-12-27T11:30:55.978Z,94.47
2022-12-27T11:31:56.000Z,94.68
2022-12-27T11:32:55.953Z,94.57
2022-12-27T11:33:55.912Z,94.26
2022-12-27T11:34:55.979Z,93.95
2022-12-27T11:35:55.885Z,94.63
2022-12-27T11:36:55.852Z,94.12
2022-12-27T11:37:55.844Z,93.43
2022-12-27T11:38:55.833Z,93.43
2022-12-27T11:39:55.797Z,93.54
2022-12-27T11:40:55.805Z,94.26
2022-12-27T11:41:55.756Z,94.06
2022-12-27T11:42:55.736Z,93.95
2022-12-27T11:43:55.740Z,93.33
2022-12-27T11:44:55.700Z,93.85
2022-12-27T11:45:55.711Z,92.81
2022-12-27T11:46:59.079Z,93.33
2022-12-27T11:47:55.661Z,93.33
2022-12-27T11:48:55.649Z,94.06
2022-12-27T11:49:55.610Z,94.84
2022-12-27T11:50:55.581Z,92.81
2022-12-27T11:51:55.593Z,92.97
2022-12-27T11:52:55.547Z,92.19
2022-12-27T11:53:56.606Z,93.02
2022-12-27T11:54:55.508Z,93.33
2022-12-27T11:55:55.551Z,93.29
2022-12-27T11:56:55.475Z,93.60
2022-12-27T11:57:55.467Z,93.29
2022-12-27T11:58:55.438Z,92.87
2022-12-27T11:59:55.418Z,92.46
2022-12-27T12:00:59.095Z,93.14
2022-12-27T12:01:55.562Z,92.57
2022-12-27T12:02:55.604Z,92.61
2022-12-27T12:03:55.342Z,93.64
2022-12-27T12:04:55.314Z,92.81
2022-12-27T12:05:55.311Z,94.26
2022-12-27T12:06:55.287Z,92.71
2022-12-27T12:07:55.259Z,93.33
2022-12-27T12:08:55.259Z,93.74
2022-12-27T12:09:55.223Z,93.23
2022-12-27T12:10:55.205Z,92.91
2022-12-27T12:11:55.533Z,93.64
2022-12-27T12:12:55.194Z,93.33
2022-12-27T12:13:55.153Z,93.43
2022-12-27T12:14:55.173Z,93.02
2022-12-27T12:15:55.108Z,93.54
2022-12-27T12:16:55.152Z,94.06
2022-12-27T12:17:55.077Z,93.23
2022-12-27T12:18:55.083Z,93.64
2022-12-27T12:19:55.027Z,94.31
2022-12-27T12:20:55.030Z,94.10
2022-12-27T12:21:54.998Z,94.51
2022-12-27T12:22:54.975Z,93.79
2022-12-27T12:23:54.954Z,94.31
2022-12-27T12:24:55.008Z,94.82
2022-12-27T12:25:54.916Z,94.62
2022-12-27T12:26:56.068Z,94.62
2022-12-27T12:27:54.877Z,94.10
2022-12-27T12:28:59.524Z,93.99
2022-12-27T12:29:54.848Z,93.37
2022-12-27T12:30:54.869Z,93.27
2022-12-27T12:31:54.843Z,93.48
2022-12-27T12:32:54.783Z,94.10
2022-12-27T12:33:54.770Z,93.54
2022-12-27T12:34:54.746Z,93.89
2022-12-27T12:35:54.795Z,94.37
2022-12-27T12:36:54.734Z,93.74
2022-12-27T12:37:54.698Z,93.95
2022-12-27T12:38:54.669Z,93.23
2022-12-27T12:39:54.644Z,93.64
2022-12-27T12:40:54.724Z,94.06
2022-12-27T12:41:54.608Z,93.33
2022-12-27T12:42:54.619Z,93.64
2022-12-27T12:43:54.601Z,93.33
2022-12-27T12:44:54.552Z,94.32
2022-12-27T12:45:54.551Z,93.91
2022-12-27T12:46:54.574Z,93.12
2022-12-27T12:47:54.491Z,92.67
2022-12-27T12:48:54.487Z,93.12
2022-12-27T12:49:54.470Z,92.91
2022-12-27T12:50:54.449Z,93.12
2022-12-27T12:51:54.419Z,94.37
2022-12-27T12:52:54.443Z,94.47